sensor_id;sensor_type;location;lat;lon;timestamp;pressure;altitude;pressure_sealevel;temperature;humidity
10261;BME280;5175;42.606;23.388;2023-06-26T00:00:03;93590.63;;;19.30;100.00
10261;BME280;5175;42.606;23.388;2023-06-26T00:02:31;93596.75;;;19.39;100.00
10261;BME280;5175;42.606;23.388;2023-06-26T00:04:58;93592.53;;;19.29;100.00
10261;BME280;5175;42.606;23.388;2023-06-26T00:07:28;93597.16;;;19.29;100.00
10261;BME280;5175;42.606;23.388;2023-06-26T00:09:54;93588.94;;;19.25;100.00
10261;BME280;5175;42.606;23.388;2023-06-26T00:12:22;93580.34;;;19.23;100.00
10261;BME280;5175;42.606;23.388;2023-06-26T00:14:49;93591.81;;;19.41;100.00
10261;BME280;5175;42.606;23.388;2023-06-26T00:17:16;93595.47;;;19.36;100.00
10261;BME280;5175;42.606;23.388;2023-06-26T00:19:43;93593.38;;;19.42;100.00
10261;BME280;5175;42.606;23.388;2023-06-26T00:22:09;93591.44;;;19.30;100.00
10261;BME280;5175;42.606;23.388;2023-06-26T00:24:36;93572.25;;;19.11;100.00
10261;BME280;5175;42.606;23.388;2023-06-26T00:27:03;93585.09;;;19.26;100.00
10261;BME280;5175;42.606;23.388;2023-06-26T00:29:31;93588.25;;;19.28;100.00
10261;BME280;5175;42.606;23.388;2023-06-26T00:31:58;93581.16;;;19.24;100.00
10261;BME280;5175;42.606;23.388;2023-06-26T00:34:25;93587.34;;;19.24;100.00
10261;BME280;5175;42.606;23.388;2023-06-26T00:36:51;93581.50;;;19.10;100.00
10261;BME280;5175;42.606;23.388;2023-06-26T00:39:18;93578.66;;;19.07;100.00
10261;BME280;5175;42.606;23.388;2023-06-26T00:41:45;93571.88;;;18.89;100.00
10261;BME280;5175;42.606;23.388;2023-06-26T00:44:11;93586.66;;;19.03;100.00
10261;BME280;5175;42.606;23.388;2023-06-26T00:46:40;93579.31;;;18.92;100.00
10261;BME280;5175;42.606;23.388;2023-06-26T00:49:06;93572.53;;;18.86;100.00
10261;BME280;5175;42.606;23.388;2023-06-26T00:51:33;93571.53;;;18.90;100.00
10261;BME280;5175;42.606;23.388;2023-06-26T00:54:00;93573.44;;;18.90;100.00
10261;BME280;5175;42.606;23.388;2023-06-26T00:56:27;93564.78;;;18.96;100.00
10261;BME280;5175;42.606;23.388;2023-06-26T00:58:55;93568.19;;;19.05;100.00
10261;BME280;5175;42.606;23.388;2023-06-26T01:01:21;93563.78;;;19.01;100.00
10261;BME280;5175;42.606;23.388;2023-06-26T01:03:53;93559.72;;;18.95;100.00
10261;BME280;5175;42.606;23.388;2023-06-26T01:06:22;93566.59;;;18.92;100.00
10261;BME280;5175;42.606;23.388;2023-06-26T01:08:51;93561.50;;;18.91;100.00
10261;BME280;5175;42.606;23.388;2023-06-26T01:11:18;93558.22;;;18.85;100.00
10261;BME280;5175;42.606;23.388;2023-06-26T01:13:45;93554.75;;;18.85;100.00
10261;BME280;5175;42.606;23.388;2023-06-26T01:16:12;93550.59;;;18.87;100.00
10261;BME280;5175;42.606;23.388;2023-06-26T01:18:41;93550.09;;;18.85;100.00
10261;BME280;5175;42.606;23.388;2023-06-26T01:21:13;93543.09;;;18.72;100.00
10261;BME280;5175;42.606;23.388;2023-06-26T01:23:49;93554.16;;;18.79;100.00
10261;BME280;5175;42.606;23.388;2023-06-26T01:26:19;93551.56;;;18.83;100.00
10261;BME280;5175;42.606;23.388;2023-06-26T01:28:47;93543.44;;;18.83;100.00
10261;BME280;5175;42.606;23.388;2023-06-26T01:31:16;93548.63;;;18.75;100.00
10261;BME280;5175;42.606;23.388;2023-06-26T01:33:43;93540.06;;;18.73;100.00
10261;BME280;5175;42.606;23.388;2023-06-26T01:36:11;93532.53;;;18.79;100.00
10261;BME280;5175;42.606;23.388;2023-06-26T01:38:38;93530.41;;;18.85;100.00
10261;BME280;5175;42.606;23.388;2023-06-26T01:41:05;93536.72;;;18.89;100.00
10261;BME280;5175;42.606;23.388;2023-06-26T01:43:41;93537.94;;;18.79;100.00
10261;BME280;5175;42.606;23.388;2023-06-26T01:46:11;93533.44;;;18.83;100.00
10261;BME280;5175;42.606;23.388;2023-06-26T01:48:54;93537.28;;;18.94;100.00
10261;BME280;5175;42.606;23.388;2023-06-26T01:51:30;93531.75;;;18.91;100.00
10261;BME280;5175;42.606;23.388;2023-06-26T01:53:58;93527.81;;;18.88;100.00
10261;BME280;5175;42.606;23.388;2023-06-26T01:56:28;93528.81;;;18.84;100.00
10261;BME280;5175;42.606;23.388;2023-06-26T01:58:57;93530.94;;;18.78;100.00
10261;BME280;5175;42.606;23.388;2023-06-26T02:01:24;93522.81;;;18.66;100.00
10261;BME280;5175;42.606;23.388;2023-06-26T02:03:52;93534.66;;;18.73;100.00
10261;BME280;5175;42.606;23.388;2023-06-26T02:06:18;93528.00;;;18.71;100.00
10261;BME280;5175;42.606;23.388;2023-06-26T02:08:45;93526.69;;;18.77;100.00
10261;BME280;5175;42.606;23.388;2023-06-26T02:11:12;93527.13;;;18.79;100.00
10261;BME280;5175;42.606;23.388;2023-06-26T02:13:39;93527.66;;;18.72;100.00
10261;BME280;5175;42.606;23.388;2023-06-26T02:16:07;93536.78;;;18.68;100.00
10261;BME280;5175;42.606;23.388;2023-06-26T02:18:33;93520.66;;;18.59;100.00
10261;BME280;5175;42.606;23.388;2023-06-26T02:21:00;93517.75;;;18.64;100.00
10261;BME280;5175;42.606;23.388;2023-06-26T02:23:28;93526.84;;;18.60;100.00
10261;BME280;5175;42.606;23.388;2023-06-26T02:25:55;93528.22;;;18.54;100.00
10261;BME280;5175;42.606;23.388;2023-06-26T02:28:22;93530.00;;;18.62;100.00
10261;BME280;5175;42.606;23.388;2023-06-26T02:30:49;93534.66;;;18.61;100.00
10261;BME280;5175;42.606;23.388;2023-06-26T02:33:17;93542.63;;;18.58;100.00
10261;BME280;5175;42.606;23.388;2023-06-26T02:35:43;93539.00;;;18.54;100.00
10261;BME280;5175;42.606;23.388;2023-06-26T02:38:10;93540.34;;;18.48;100.00
10261;BME280;5175;42.606;23.388;2023-06-26T02:40:38;93544.22;;;18.38;100.00
10261;BME280;5175;42.606;23.388;2023-06-26T02:43:06;93536.19;;;18.50;100.00
10261;BME280;5175;42.606;23.388;2023-06-26T02:45:33;93536.53;;;18.49;100.00
10261;BME280;5175;42.606;23.388;2023-06-26T02:47:59;93528.97;;;18.54;100.00
10261;BME280;5175;42.606;23.388;2023-06-26T02:50:28;93539.69;;;18.51;100.00
10261;BME280;5175;42.606;23.388;2023-06-26T02:52:54;93546.31;;;18.53;100.00
10261;BME280;5175;42.606;23.388;2023-06-26T02:55:21;93525.09;;;18.43;100.00
10261;BME280;5175;42.606;23.388;2023-06-26T02:57:48;93538.09;;;18.50;100.00
10261;BME280;5175;42.606;23.388;2023-06-26T03:00:17;93540.25;;;18.56;100.00
10261;BME280;5175;42.606;23.388;2023-06-26T03:02:43;93539.56;;;18.59;100.00
10261;BME280;5175;42.606;23.388;2023-06-26T03:05:10;93548.84;;;18.70;100.00
10261;BME280;5175;42.606;23.388;2023-06-26T03:07:39;93544.38;;;18.74;100.00
10261;BME280;5175;42.606;23.388;2023-06-26T03:10:07;93546.94;;;18.71;100.00
10261;BME280;5175;42.606;23.388;2023-06-26T03:12:34;93549.66;;;18.83;100.00
10261;BME280;5175;42.606;23.388;2023-06-26T03:15:01;93547.97;;;18.79;100.00
10261;BME280;5175;42.606;23.388;2023-06-26T03:17:27;93551.13;;;18.81;100.00
10261;BME280;5175;42.606;23.388;2023-06-26T03:19:54;93548.19;;;18.86;100.00
10261;BME280;5175;42.606;23.388;2023-06-26T03:22:21;93551.03;;;18.89;100.00
10261;BME280;5175;42.606;23.388;2023-06-26T03:24:49;93499.16;;;18.51;100.00
10261;BME280;5175;42.606;23.388;2023-06-26T03:27:15;93541.84;;;18.69;100.00
10261;BME280;5175;42.606;23.388;2023-06-26T03:29:42;93558.25;;;18.52;100.00
10261;BME280;5175;42.606;23.388;2023-06-26T03:32:09;93526.41;;;18.58;100.00
10261;BME280;5175;42.606;23.388;2023-06-26T03:34:36;93548.19;;;18.73;100.00
10261;BME280;5175;42.606;23.388;2023-06-26T03:37:02;93552.56;;;18.66;100.00
10261;BME280;5175;42.606;23.388;2023-06-26T03:39:29;93550.97;;;18.65;100.00
10261;BME280;5175;42.606;23.388;2023-06-26T03:41:57;93541.28;;;18.64;100.00
10261;BME280;5175;42.606;23.388;2023-06-26T03:44:26;93549.06;;;18.77;100.00
10261;BME280;5175;42.606;23.388;2023-06-26T03:46:52;93551.41;;;18.67;100.00
10261;BME280;5175;42.606;23.388;2023-06-26T03:49:19;93544.75;;;18.64;100.00
10261;BME280;5175;42.606;23.388;2023-06-26T03:51:46;93544.56;;;18.69;100.00
10261;BME280;5175;42.606;23.388;2023-06-26T03:54:13;93540.25;;;18.56;100.00
10261;BME280;5175;42.606;23.388;2023-06-26T03:56:40;93548.91;;;18.62;100.00
10261;BME280;5175;42.606;23.388;2023-06-26T03:59:08;93547.69;;;18.59;100.00
10261;BME280;5175;42.606;23.388;2023-06-26T04:01:36;93544.31;;;18.62;100.00
10261;BME280;5175;42.606;23.388;2023-06-26T04:04:03;93545.03;;;18.71;100.00
10261;BME280;5175;42.606;23.388;2023-06-26T04:06:30;93556.28;;;18.73;100.00
10261;BME280;5175;42.606;23.388;2023-06-26T04:08:57;93546.81;;;18.67;100.00
10261;BME280;5175;42.606;23.388;2023-06-26T04:11:24;93530.22;;;18.57;100.00
10261;BME280;5175;42.606;23.388;2023-06-26T04:13:51;93541.72;;;18.54;100.00
10261;BME280;5175;42.606;23.388;2023-06-26T04:16:20;93538.00;;;18.58;100.00
10261;BME280;5175;42.606;23.388;2023-06-26T04:18:50;93527.88;;;18.67;100.00
10261;BME280;5175;42.606;23.388;2023-06-26T04:21:17;93540.38;;;18.72;100.00
10261;BME280;5175;42.606;23.388;2023-06-26T04:23:44;93540.06;;;18.73;100.00
10261;BME280;5175;42.606;23.388;2023-06-26T04:26:11;93540.31;;;18.93;100.00
10261;BME280;5175;42.606;23.388;2023-06-26T04:28:38;93543.94;;;18.97;100.00
10261;BME280;5175;42.606;23.388;2023-06-26T04:31:05;93557.03;;;19.07;100.00
10261;BME280;5175;42.606;23.388;2023-06-26T04:33:33;93545.28;;;18.91;100.00
10261;BME280;5175;42.606;23.388;2023-06-26T04:36:01;93557.25;;;19.02;100.00
10261;BME280;5175;42.606;23.388;2023-06-26T04:38:29;93545.41;;;18.94;100.00
10261;BME280;5175;42.606;23.388;2023-06-26T04:40:56;93558.41;;;19.13;100.00
10261;BME280;5175;42.606;23.388;2023-06-26T04:43:23;93548.13;;;19.06;100.00
10261;BME280;5175;42.606;23.388;2023-06-26T04:45:50;93556.59;;;19.17;100.00
10261;BME280;5175;42.606;23.388;2023-06-26T04:48:16;93544.53;;;19.02;100.00
10261;BME280;5175;42.606;23.388;2023-06-26T04:50:45;93563.47;;;19.14;100.00
10261;BME280;5175;42.606;23.388;2023-06-26T04:53:18;93570.69;;;19.22;100.00
10261;BME280;5175;42.606;23.388;2023-06-26T04:55:44;93556.13;;;19.15;100.00
10261;BME280;5175;42.606;23.388;2023-06-26T04:58:11;93558.50;;;19.16;100.00
10261;BME280;5175;42.606;23.388;2023-06-26T05:00:38;93558.03;;;19.02;100.00
10261;BME280;5175;42.606;23.388;2023-06-26T05:03:08;93558.94;;;19.06;100.00
10261;BME280;5175;42.606;23.388;2023-06-26T05:05:35;93566.03;;;18.99;100.00
10261;BME280;5175;42.606;23.388;2023-06-26T05:08:15;93567.72;;;19.03;100.00
10261;BME280;5175;42.606;23.388;2023-06-26T05:10:42;93558.84;;;19.15;100.00
10261;BME280;5175;42.606;23.388;2023-06-26T05:13:09;93576.09;;;19.22;100.00
10261;BME280;5175;42.606;23.388;2023-06-26T05:15:36;93569.88;;;19.34;100.00
10261;BME280;5175;42.606;23.388;2023-06-26T05:18:03;93580.28;;;19.44;100.00
10261;BME280;5175;42.606;23.388;2023-06-26T05:20:31;93571.47;;;19.35;100.00
10261;BME280;5175;42.606;23.388;2023-06-26T05:22:58;93578.28;;;19.41;100.00
10261;BME280;5175;42.606;23.388;2023-06-26T05:25:26;93576.94;;;19.59;100.00
10261;BME280;5175;42.606;23.388;2023-06-26T05:27:55;93570.72;;;19.59;100.00
10261;BME280;5175;42.606;23.388;2023-06-26T05:30:22;93583.59;;;19.62;100.00
10261;BME280;5175;42.606;23.388;2023-06-26T05:32:51;93566.66;;;19.41;100.00
10261;BME280;5175;42.606;23.388;2023-06-26T05:35:18;93579.75;;;19.51;100.00
10261;BME280;5175;42.606;23.388;2023-06-26T05:37:48;93578.06;;;19.58;100.00
10261;BME280;5175;42.606;23.388;2023-06-26T05:40:16;93579.06;;;19.42;100.00
10261;BME280;5175;42.606;23.388;2023-06-26T05:42:45;93584.00;;;19.40;100.00
10261;BME280;5175;42.606;23.388;2023-06-26T05:45:12;93574.22;;;19.59;100.00
10261;BME280;5175;42.606;23.388;2023-06-26T05:47:39;93578.47;;;19.72;100.00
10261;BME280;5175;42.606;23.388;2023-06-26T05:50:07;93576.44;;;19.81;100.00
10261;BME280;5175;42.606;23.388;2023-06-26T05:52:35;93586.00;;;20.03;100.00
10261;BME280;5175;42.606;23.388;2023-06-26T05:55:02;93583.41;;;20.07;100.00
10261;BME280;5175;42.606;23.388;2023-06-26T05:57:30;93583.47;;;20.22;100.00
10261;BME280;5175;42.606;23.388;2023-06-26T05:59:59;93585.06;;;20.11;100.00
10261;BME280;5175;42.606;23.388;2023-06-26T06:02:25;93584.63;;;20.33;100.00
10261;BME280;5175;42.606;23.388;2023-06-26T06:04:52;93589.44;;;20.68;100.00
10261;BME280;5175;42.606;23.388;2023-06-26T06:07:19;93594.47;;;20.53;100.00
10261;BME280;5175;42.606;23.388;2023-06-26T06:09:47;93596.94;;;20.58;100.00
10261;BME280;5175;42.606;23.388;2023-06-26T06:12:14;93599.78;;;20.50;100.00
10261;BME280;5175;42.606;23.388;2023-06-26T06:14:40;93597.16;;;20.26;100.00
10261;BME280;5175;42.606;23.388;2023-06-26T06:17:09;93579.56;;;20.08;100.00
10261;BME280;5175;42.606;23.388;2023-06-26T06:19:35;93592.72;;;20.21;100.00
10261;BME280;5175;42.606;23.388;2023-06-26T06:22:03;93596.59;;;20.20;100.00
10261;BME280;5175;42.606;23.388;2023-06-26T06:24:29;93591.72;;;20.14;100.00
10261;BME280;5175;42.606;23.388;2023-06-26T06:26:56;93586.91;;;20.07;100.00
10261;BME280;5175;42.606;23.388;2023-06-26T06:32:05;93583.38;;;20.19;100.00
10261;BME280;5175;42.606;23.388;2023-06-26T06:34:33;93591.28;;;20.36;100.00
10261;BME280;5175;42.606;23.388;2023-06-26T06:37:01;93589.31;;;20.48;100.00
10261;BME280;5175;42.606;23.388;2023-06-26T06:39:31;93591.84;;;20.57;100.00
10261;BME280;5175;42.606;23.388;2023-06-26T06:41:59;93589.56;;;20.71;100.00
10261;BME280;5175;42.606;23.388;2023-06-26T06:44:27;93591.97;;;21.04;100.00
10261;BME280;5175;42.606;23.388;2023-06-26T06:46:55;93587.66;;;21.31;100.00
10261;BME280;5175;42.606;23.388;2023-06-26T06:49:22;93594.91;;;21.27;100.00
10261;BME280;5175;42.606;23.388;2023-06-26T06:51:51;93597.88;;;21.06;100.00
10261;BME280;5175;42.606;23.388;2023-06-26T06:54:17;93605.44;;;20.85;100.00
10261;BME280;5175;42.606;23.388;2023-06-26T06:56:45;93591.00;;;20.96;100.00
10261;BME280;5175;42.606;23.388;2023-06-26T06:59:11;93591.94;;;20.88;100.00
10261;BME280;5175;42.606;23.388;2023-06-26T07:01:39;93595.16;;;20.78;100.00
10261;BME280;5175;42.606;23.388;2023-06-26T07:04:06;93577.00;;;20.94;100.00
10261;BME280;5175;42.606;23.388;2023-06-26T07:06:33;93587.56;;;21.27;100.00
10261;BME280;5175;42.606;23.388;2023-06-26T07:09:01;93590.47;;;21.50;100.00
10261;BME280;5175;42.606;23.388;2023-06-26T07:11:28;93590.09;;;21.82;100.00
10261;BME280;5175;42.606;23.388;2023-06-26T07:13:55;93588.00;;;21.76;100.00
10261;BME280;5175;42.606;23.388;2023-06-26T07:16:22;93596.13;;;22.07;100.00
10261;BME280;5175;42.606;23.388;2023-06-26T07:18:49;93594.53;;;22.41;100.00
10261;BME280;5175;42.606;23.388;2023-06-26T07:21:17;93563.97;;;22.48;100.00
10261;BME280;5175;42.606;23.388;2023-06-26T07:23:44;93597.72;;;22.62;100.00
10261;BME280;5175;42.606;23.388;2023-06-26T07:26:14;93600.66;;;22.92;100.00
10261;BME280;5175;42.606;23.388;2023-06-26T07:28:41;93607.00;;;22.99;100.00
10261;BME280;5175;42.606;23.388;2023-06-26T07:31:08;93600.34;;;22.97;100.00
10261;BME280;5175;42.606;23.388;2023-06-26T07:33:34;93604.72;;;23.01;100.00
10261;BME280;5175;42.606;23.388;2023-06-26T07:36:01;93602.69;;;22.98;100.00
10261;BME280;5175;42.606;23.388;2023-06-26T07:38:28;93509.09;;;22.61;100.00
10261;BME280;5175;42.606;23.388;2023-06-26T07:40:55;93599.16;;;23.59;100.00
10261;BME280;5175;42.606;23.388;2023-06-26T07:43:23;93603.09;;;23.61;100.00
10261;BME280;5175;42.606;23.388;2023-06-26T07:45:50;93608.06;;;23.56;100.00
10261;BME280;5175;42.606;23.388;2023-06-26T07:48:19;93606.72;;;23.69;100.00
10261;BME280;5175;42.606;23.388;2023-06-26T07:50:46;93597.69;;;24.10;100.00
10261;BME280;5175;42.606;23.388;2023-06-26T07:53:13;93606.66;;;24.11;100.00
10261;BME280;5175;42.606;23.388;2023-06-26T07:55:40;93605.84;;;24.10;95.96
10261;BME280;5175;42.606;23.388;2023-06-26T07:58:07;93602.72;;;24.08;98.70
10261;BME280;5175;42.606;23.388;2023-06-26T08:00:36;93604.19;;;24.06;100.00
10261;BME280;5175;42.606;23.388;2023-06-26T08:03:03;93617.03;;;24.05;96.59
10261;BME280;5175;42.606;23.388;2023-06-26T08:05:30;93612.81;;;24.34;100.00
10261;BME280;5175;42.606;23.388;2023-06-26T08:07:57;93613.66;;;24.68;90.37
10261;BME280;5175;42.606;23.388;2023-06-26T08:10:25;93609.31;;;24.63;90.59
10261;BME280;5175;42.606;23.388;2023-06-26T08:12:52;93620.69;;;24.99;88.13
10261;BME280;5175;42.606;23.388;2023-06-26T08:15:20;93619.81;;;24.91;85.48
10261;BME280;5175;42.606;23.388;2023-06-26T08:20:32;93614.03;;;25.29;78.01
10261;BME280;5175;42.606;23.388;2023-06-26T08:23:01;93615.88;;;25.22;78.18
10261;BME280;5175;42.606;23.388;2023-06-26T08:25:28;93609.34;;;24.97;78.36
10261;BME280;5175;42.606;23.388;2023-06-26T08:27:56;93556.81;;;24.14;77.52
10261;BME280;5175;42.606;23.388;2023-06-26T08:30:23;93605.22;;;24.20;81.73
10261;BME280;5175;42.606;23.388;2023-06-26T08:32:54;93612.47;;;23.87;85.79
10261;BME280;5175;42.606;23.388;2023-06-26T08:35:21;93599.72;;;23.94;84.12
10261;BME280;5175;42.606;23.388;2023-06-26T08:37:53;93615.47;;;24.57;82.90
10261;BME280;5175;42.606;23.388;2023-06-26T08:40:24;93597.50;;;24.82;76.49
10261;BME280;5175;42.606;23.388;2023-06-26T08:42:52;93621.59;;;25.06;76.86
10261;BME280;5175;42.606;23.388;2023-06-26T08:45:20;93634.25;;;24.92;79.63
10261;BME280;5175;42.606;23.388;2023-06-26T08:47:51;93600.94;;;25.12;78.65
10261;BME280;5175;42.606;23.388;2023-06-26T08:50:23;93608.19;;;25.31;74.69
10261;BME280;5175;42.606;23.388;2023-06-26T08:53:01;93617.91;;;25.28;77.23
10261;BME280;5175;42.606;23.388;2023-06-26T08:55:35;93610.09;;;25.64;75.50
10261;BME280;5175;42.606;23.388;2023-06-26T08:58:06;93612.13;;;25.74;76.45
10261;BME280;5175;42.606;23.388;2023-06-26T09:00:33;93606.41;;;24.49;79.66
10261;BME280;5175;42.606;23.388;2023-06-26T09:03:03;93602.41;;;24.43;79.12
10261;BME280;5175;42.606;23.388;2023-06-26T09:05:34;93606.53;;;24.30;82.55
10261;BME280;5175;42.606;23.388;2023-06-26T09:08:02;93604.19;;;24.58;81.04
10261;BME280;5175;42.606;23.388;2023-06-26T09:10:30;93606.63;;;24.97;77.68
10261;BME280;5175;42.606;23.388;2023-06-26T09:12:59;93593.16;;;25.14;74.36
10261;BME280;5175;42.606;23.388;2023-06-26T09:15:37;93608.84;;;25.54;76.28
10261;BME280;5175;42.606;23.388;2023-06-26T09:18:05;93600.28;;;26.03;70.59
10261;BME280;5175;42.606;23.388;2023-06-26T09:20:34;93607.84;;;26.17;69.22
10261;BME280;5175;42.606;23.388;2023-06-26T09:23:01;93603.66;;;25.86;71.97
10261;BME280;5175;42.606;23.388;2023-06-26T09:25:28;93605.50;;;25.34;72.53
10261;BME280;5175;42.606;23.388;2023-06-26T09:27:55;93601.09;;;25.60;73.45
10261;BME280;5175;42.606;23.388;2023-06-26T09:30:22;93596.16;;;25.79;70.73
10261;BME280;5175;42.606;23.388;2023-06-26T09:32:49;93585.41;;;26.00;73.05
10261;BME280;5175;42.606;23.388;2023-06-26T09:35:16;93599.44;;;26.50;71.30
10261;BME280;5175;42.606;23.388;2023-06-26T09:37:44;93602.03;;;26.29;69.59
10261;BME280;5175;42.606;23.388;2023-06-26T09:40:11;93595.47;;;26.37;71.50
10261;BME280;5175;42.606;23.388;2023-06-26T09:42:38;93599.38;;;26.39;69.85
10261;BME280;5175;42.606;23.388;2023-06-26T09:45:05;93596.53;;;25.74;68.55
10261;BME280;5175;42.606;23.388;2023-06-26T09:47:34;93596.78;;;26.06;70.88
10261;BME280;5175;42.606;23.388;2023-06-26T09:50:02;93593.72;;;25.67;67.57
10261;BME280;5175;42.606;23.388;2023-06-26T09:52:31;93603.28;;;25.87;67.76
10261;BME280;5175;42.606;23.388;2023-06-26T09:55:08;93601.06;;;26.03;69.16
10261;BME280;5175;42.606;23.388;2023-06-26T09:57:35;93602.47;;;25.83;72.69
10261;BME280;5175;42.606;23.388;2023-06-26T10:00:03;93597.38;;;25.82;71.48
10261;BME280;5175;42.606;23.388;2023-06-26T10:02:31;93596.91;;;25.76;75.39
10261;BME280;5175;42.606;23.388;2023-06-26T10:04:57;93602.13;;;25.88;71.44
10261;BME280;5175;42.606;23.388;2023-06-26T10:07:24;93596.13;;;25.72;74.51
10261;BME280;5175;42.606;23.388;2023-06-26T10:09:54;93590.72;;;25.39;71.52
10261;BME280;5175;42.606;23.388;2023-06-26T10:12:26;93603.22;;;25.07;68.17
10261;BME280;5175;42.606;23.388;2023-06-26T10:14:56;93605.88;;;25.00;69.39
10261;BME280;5175;42.606;23.388;2023-06-26T10:17:25;93559.91;;;24.72;71.01
10261;BME280;5175;42.606;23.388;2023-06-26T10:19:55;93593.16;;;25.11;71.72
10261;BME280;5175;42.606;23.388;2023-06-26T10:22:27;93599.75;;;25.10;71.06
10261;BME280;5175;42.606;23.388;2023-06-26T10:24:55;93603.50;;;24.95;68.21
10261;BME280;5175;42.606;23.388;2023-06-26T10:27:29;93602.34;;;24.96;68.21
10261;BME280;5175;42.606;23.388;2023-06-26T10:30:02;93598.78;;;24.92;69.72
10261;BME280;5175;42.606;23.388;2023-06-26T10:32:30;93597.88;;;25.14;69.84
10261;BME280;5175;42.606;23.388;2023-06-26T10:34:57;93595.38;;;25.02;68.67
10261;BME280;5175;42.606;23.388;2023-06-26T10:37:41;93589.34;;;25.19;70.41
10261;BME280;5175;42.606;23.388;2023-06-26T10:40:09;93596.31;;;25.49;68.23
10261;BME280;5175;42.606;23.388;2023-06-26T10:42:39;93599.44;;;25.52;66.43
10261;BME280;5175;42.606;23.388;2023-06-26T10:45:10;93594.03;;;25.59;67.25
10261;BME280;5175;42.606;23.388;2023-06-26T10:47:40;93591.34;;;25.62;72.32
10261;BME280;5175;42.606;23.388;2023-06-26T10:50:24;93599.84;;;25.54;71.99
10261;BME280;5175;42.606;23.388;2023-06-26T10:53:15;93590.22;;;25.30;76.69
10261;BME280;5175;42.606;23.388;2023-06-26T10:55:49;93593.72;;;25.27;76.02
10261;BME280;5175;42.606;23.388;2023-06-26T10:58:32;93588.97;;;24.87;75.18
10261;BME280;5175;42.606;23.388;2023-06-26T11:01:18;93587.66;;;24.77;74.50
10261;BME280;5175;42.606;23.388;2023-06-26T11:03:46;93584.38;;;24.95;72.77
10261;BME280;5175;42.606;23.388;2023-06-26T11:06:17;93588.03;;;24.76;69.72
10261;BME280;5175;42.606;23.388;2023-06-26T11:08:44;93577.25;;;24.83;72.48
10261;BME280;5175;42.606;23.388;2023-06-26T11:11:11;93591.53;;;24.73;69.46
10261;BME280;5175;42.606;23.388;2023-06-26T11:13:39;93583.06;;;24.81;70.29
10261;BME280;5175;42.606;23.388;2023-06-26T11:16:06;93583.34;;;24.73;69.76
10261;BME280;5175;42.606;23.388;2023-06-26T11:18:33;93569.41;;;24.81;71.46
10261;BME280;5175;42.606;23.388;2023-06-26T11:21:06;93579.31;;;24.93;70.44
10261;BME280;5175;42.606;23.388;2023-06-26T11:23:34;93573.47;;;24.95;69.82
10261;BME280;5175;42.606;23.388;2023-06-26T11:26:18;93578.47;;;24.89;71.41
10261;BME280;5175;42.606;23.388;2023-06-26T11:29:02;93575.59;;;25.12;70.86
10261;BME280;5175;42.606;23.388;2023-06-26T11:31:30;93579.91;;;25.13;71.60
10261;BME280;5175;42.606;23.388;2023-06-26T11:33:58;93572.69;;;25.31;67.86
10261;BME280;5175;42.606;23.388;2023-06-26T11:36:27;93582.41;;;25.28;66.24
10261;BME280;5175;42.606;23.388;2023-06-26T11:38:53;93571.09;;;25.30;66.40
10261;BME280;5175;42.606;23.388;2023-06-26T11:41:21;93572.78;;;25.45;67.81
10261;BME280;5175;42.606;23.388;2023-06-26T11:43:48;93570.88;;;25.45;65.62
10261;BME280;5175;42.606;23.388;2023-06-26T11:46:19;93579.97;;;25.57;63.88
10261;BME280;5175;42.606;23.388;2023-06-26T11:48:46;93580.16;;;25.81;65.18
10261;BME280;5175;42.606;23.388;2023-06-26T11:51:13;93580.13;;;26.22;65.25
10261;BME280;5175;42.606;23.388;2023-06-26T11:53:41;93575.78;;;25.70;63.38
10261;BME280;5175;42.606;23.388;2023-06-26T11:56:09;93568.97;;;25.93;65.09
10261;BME280;5175;42.606;23.388;2023-06-26T11:58:36;93574.34;;;26.41;65.48
10261;BME280;5175;42.606;23.388;2023-06-26T12:01:02;93570.50;;;26.49;63.23
10261;BME280;5175;42.606;23.388;2023-06-26T12:03:31;93570.97;;;26.68;63.84
10261;BME280;5175;42.606;23.388;2023-06-26T12:05:59;93566.06;;;26.99;60.89
10261;BME280;5175;42.606;23.388;2023-06-26T12:08:28;93562.69;;;27.48;61.14
10261;BME280;5175;42.606;23.388;2023-06-26T12:10:56;93570.13;;;27.65;56.30
10261;BME280;5175;42.606;23.388;2023-06-26T12:13:22;93569.31;;;27.61;57.22
10261;BME280;5175;42.606;23.388;2023-06-26T12:15:49;93584.50;;;27.19;56.30
10261;BME280;5175;42.606;23.388;2023-06-26T12:18:16;93569.13;;;26.83;57.01
10261;BME280;5175;42.606;23.388;2023-06-26T12:20:44;93572.34;;;27.06;59.21
10261;BME280;5175;42.606;23.388;2023-06-26T12:23:12;93569.72;;;27.42;55.97
10261;BME280;5175;42.606;23.388;2023-06-26T12:25:39;93561.50;;;27.70;61.12
10261;BME280;5175;42.606;23.388;2023-06-26T12:28:15;93568.94;;;27.98;55.78
10261;BME280;5175;42.606;23.388;2023-06-26T12:30:45;93569.28;;;28.45;57.29
10261;BME280;5175;42.606;23.388;2023-06-26T12:33:13;93570.91;;;28.18;53.33
10261;BME280;5175;42.606;23.388;2023-06-26T12:35:40;93567.38;;;27.89;54.32
10261;BME280;5175;42.606;23.388;2023-06-26T12:38:09;93568.16;;;27.86;55.86
10261;BME280;5175;42.606;23.388;2023-06-26T12:40:44;93562.28;;;28.23;58.67
10261;BME280;5175;42.606;23.388;2023-06-26T12:43:11;93570.53;;;27.81;57.28
10261;BME280;5175;42.606;23.388;2023-06-26T12:45:38;93577.06;;;27.20;55.63
10261;BME280;5175;42.606;23.388;2023-06-26T12:48:10;93571.63;;;27.27;55.92
10261;BME280;5175;42.606;23.388;2023-06-26T12:50:43;93563.81;;;27.43;54.75
10261;BME280;5175;42.606;23.388;2023-06-26T12:53:11;93553.97;;;27.28;53.89
10261;BME280;5175;42.606;23.388;2023-06-26T12:55:37;93558.38;;;27.68;54.54
10261;BME280;5175;42.606;23.388;2023-06-26T12:58:04;93557.97;;;27.94;55.32
10261;BME280;5175;42.606;23.388;2023-06-26T13:00:32;93563.84;;;27.92;51.43
10261;BME280;5175;42.606;23.388;2023-06-26T13:02:59;93568.56;;;28.27;51.10
10261;BME280;5175;42.606;23.388;2023-06-26T13:05:26;93561.53;;;28.19;53.31